Bellevue, WA

1:33 PM PDT on August 31, 2015 (GMT -0700)
Redwood Estates | | Change Station
CLOSE
Current Station
Personal Weather Station
Location: Bellevue, WA
Elevation: 260 ft
Nearby Weather Stations

Elev 260 ft 47.64 °N, 122.12 °W | Updated 3 minutes ago

Overcast
Overcast
63.3 °F
Feels Like 63.3 °F
N
5.0
Wind Variable Wind from SE
Gusts 9.0 mph

Today
High -- | Low -- °F
--% Chance of Precip.
Yesterday
High -- | Low -- °F
Precip. -- in
6:25 AM 7:51 PM
Waning Gibbous, 94% visible
Pressure 29.99 in
Visibility 10.0 miles
Clouds Scattered Clouds 2200 ft
Overcast 6000 ft
Dew Point 43 °F
Humidity 48%
Rainfall Not available.
Snow Depth Not available.
UV 2 out of 12
Pollen .30 out of 12
Air Quality Not available.
Flu Activity Not available.
METAR KRNT 311953Z 17015G20KT 10SM SCT022 OVC060 18/13 A2998 RMK AO2 SLP155 T01780128 $
Pressure 29.99 in
Visibility 10.0 miles
Clouds Scattered Clouds 2200 ft
Overcast 6000 ft
Dew Point 43 °F
Humidity 48%
Rainfall Not available.
Snow Depth Not available.
UV 2 out of 12
Pollen .30 out of 12
Air Quality Not available.
Flu Activity Not available.
METAR KRNT 311953Z 17015G20KT 10SM SCT022 OVC060 18/13 A2998 RMK AO2 SLP155 T01780128 $

10-Day Weather Forecast

×

Almanac

Astronomy

Aug. 31, 2015 Rise Set
Actual Time
Civil Twilight
Nautical Twilight
Astronomical Twilight
Moon
Length of Visible Light
Length of Day
Tomorrow will be .
, % of the Moon is Illuminated

Today's Extremes

State Highs State Lows

Community

WunderPhotos

Upload Photos

1,851,357 photos uploaded!

WunderBlogs® & News

Nearby

Air Quality

  Air Quality AQ Index Pollutant
Not available.

Snow Depth

Station Depth Elevation

Earthquake Activity

City Distance Mag. Time & Date
Minimum magnitude displayed is 2.5.

Coastal Water Temperatures

Place Temperature

Stations

Nearby Weather Stations

Station Location Temp. Windchill Dew Point Humidity Wind Precip. Elev Updated Type